sensor_id;sensor_type;location;lat;lon;timestamp;P1;durP1;ratioP1;P2;durP2;ratioP2
62580;SDS011;48640;48.770;9.148;2022-07-30T00:02:15;4.60;;;2.20;;
62580;SDS011;48640;48.770;9.148;2022-07-30T00:04:43;4.82;;;2.33;;
62580;SDS011;48640;48.770;9.148;2022-07-30T00:07:09;3.50;;;2.20;;
62580;SDS011;48640;48.770;9.148;2022-07-30T00:09:36;4.30;;;2.10;;
62580;SDS011;48640;48.770;9.148;2022-07-30T00:12:03;4.80;;;2.55;;
62580;SDS011;48640;48.770;9.148;2022-07-30T00:14:32;5.47;;;2.08;;
62580;SDS011;48640;48.770;9.148;2022-07-30T00:16:59;5.68;;;2.63;;
62580;SDS011;48640;48.770;9.148;2022-07-30T00:19:27;4.50;;;2.85;;
62580;SDS011;48640;48.770;9.148;2022-07-30T00:21:54;3.83;;;1.98;;
62580;SDS011;48640;48.770;9.148;2022-07-30T00:24:21;4.72;;;2.45;;
62580;SDS011;48640;48.770;9.148;2022-07-30T00:26:48;3.15;;;2.10;;
62580;SDS011;48640;48.770;9.148;2022-07-30T00:29:15;4.18;;;2.30;;
62580;SDS011;48640;48.770;9.148;2022-07-30T00:31:43;5.65;;;2.33;;
62580;SDS011;48640;48.770;9.148;2022-07-30T00:34:10;3.92;;;2.65;;
62580;SDS011;48640;48.770;9.148;2022-07-30T00:36:37;4.13;;;2.72;;
62580;SDS011;48640;48.770;9.148;2022-07-30T00:39:04;5.78;;;3.05;;
62580;SDS011;48640;48.770;9.148;2022-07-30T00:41:31;5.20;;;3.10;;
62580;SDS011;48640;48.770;9.148;2022-07-30T00:43:58;5.50;;;3.55;;
62580;SDS011;48640;48.770;9.148;2022-07-30T00:46:24;5.05;;;2.92;;
62580;SDS011;48640;48.770;9.148;2022-07-30T00:48:53;4.07;;;3.05;;
62580;SDS011;48640;48.770;9.148;2022-07-30T00:51:19;5.20;;;3.60;;
62580;SDS011;48640;48.770;9.148;2022-07-30T00:53:46;4.85;;;3.33;;
62580;SDS011;48640;48.770;9.148;2022-07-30T00:56:13;5.07;;;3.55;;
62580;SDS011;48640;48.770;9.148;2022-07-30T00:58:40;4.30;;;3.63;;
62580;SDS011;48640;48.770;9.148;2022-07-30T01:01:07;5.35;;;3.40;;
62580;SDS011;48640;48.770;9.148;2022-07-30T01:03:33;5.00;;;3.38;;
62580;SDS011;48640;48.770;9.148;2022-07-30T01:06:03;3.97;;;3.22;;
62580;SDS011;48640;48.770;9.148;2022-07-30T01:08:30;5.75;;;3.17;;
62580;SDS011;48640;48.770;9.148;2022-07-30T01:10:57;5.30;;;3.28;;
62580;SDS011;48640;48.770;9.148;2022-07-30T01:13:24;5.32;;;3.38;;
62580;SDS011;48640;48.770;9.148;2022-07-30T01:15:50;4.10;;;2.80;;
62580;SDS011;48640;48.770;9.148;2022-07-30T01:18:17;10.52;;;3.80;;
62580;SDS011;48640;48.770;9.148;2022-07-30T01:20:47;3.95;;;3.13;;
62580;SDS011;48640;48.770;9.148;2022-07-30T01:23:22;6.57;;;4.40;;
62580;SDS011;48640;48.770;9.148;2022-07-30T01:25:55;4.72;;;3.65;;
62580;SDS011;48640;48.770;9.148;2022-07-30T01:28:26;7.68;;;3.40;;
62580;SDS011;48640;48.770;9.148;2022-07-30T01:30:56;6.68;;;3.33;;
62580;SDS011;48640;48.770;9.148;2022-07-30T01:33:24;4.90;;;3.40;;
62580;SDS011;48640;48.770;9.148;2022-07-30T01:35:53;3.67;;;2.80;;
62580;SDS011;48640;48.770;9.148;2022-07-30T01:38:21;4.32;;;3.00;;
62580;SDS011;48640;48.770;9.148;2022-07-30T01:40:50;4.80;;;3.20;;
62580;SDS011;48640;48.770;9.148;2022-07-30T01:43:20;3.58;;;2.80;;
62580;SDS011;48640;48.770;9.148;2022-07-30T01:45:49;5.07;;;3.53;;
62580;SDS011;48640;48.770;9.148;2022-07-30T01:48:19;5.32;;;3.25;;
62580;SDS011;48640;48.770;9.148;2022-07-30T01:50:49;5.80;;;3.28;;
62580;SDS011;48640;48.770;9.148;2022-07-30T01:53:20;7.00;;;3.08;;
62580;SDS011;48640;48.770;9.148;2022-07-30T01:55:50;4.20;;;3.00;;
62580;SDS011;48640;48.770;9.148;2022-07-30T01:58:22;3.40;;;2.75;;
62580;SDS011;48640;48.770;9.148;2022-07-30T02:00:52;4.70;;;2.80;;
62580;SDS011;48640;48.770;9.148;2022-07-30T02:03:22;4.40;;;2.85;;
62580;SDS011;48640;48.770;9.148;2022-07-30T02:05:49;3.90;;;2.90;;
62580;SDS011;48640;48.770;9.148;2022-07-30T02:08:21;4.68;;;2.80;;
62580;SDS011;48640;48.770;9.148;2022-07-30T02:10:53;4.78;;;2.80;;
62580;SDS011;48640;48.770;9.148;2022-07-30T02:13:28;5.53;;;2.88;;
62580;SDS011;48640;48.770;9.148;2022-07-30T02:15:58;5.07;;;2.60;;
62580;SDS011;48640;48.770;9.148;2022-07-30T02:18:33;3.60;;;2.95;;
62580;SDS011;48640;48.770;9.148;2022-07-30T02:21:04;4.82;;;2.72;;
62580;SDS011;48640;48.770;9.148;2022-07-30T02:23:34;4.82;;;2.78;;
62580;SDS011;48640;48.770;9.148;2022-07-30T02:26:03;5.32;;;2.65;;
62580;SDS011;48640;48.770;9.148;2022-07-30T02:28:35;4.68;;;2.80;;
62580;SDS011;48640;48.770;9.148;2022-07-30T02:31:04;4.10;;;2.67;;
62580;SDS011;48640;48.770;9.148;2022-07-30T02:33:35;4.18;;;2.47;;
62580;SDS011;48640;48.770;9.148;2022-07-30T02:36:05;5.50;;;3.08;;
62580;SDS011;48640;48.770;9.148;2022-07-30T02:38:32;5.53;;;3.22;;
62580;SDS011;48640;48.770;9.148;2022-07-30T02:41:00;3.83;;;2.60;;
62580;SDS011;48640;48.770;9.148;2022-07-30T02:43:29;3.72;;;2.50;;
62580;SDS011;48640;48.770;9.148;2022-07-30T02:48:27;5.43;;;3.05;;
62580;SDS011;48640;48.770;9.148;2022-07-30T02:50:56;6.43;;;3.30;;
62580;SDS011;48640;48.770;9.148;2022-07-30T02:53:25;7.65;;;3.08;;
62580;SDS011;48640;48.770;9.148;2022-07-30T02:55:53;3.58;;;2.80;;
62580;SDS011;48640;48.770;9.148;2022-07-30T02:58:22;4.88;;;2.90;;
62580;SDS011;48640;48.770;9.148;2022-07-30T03:00:51;6.28;;;2.95;;
62580;SDS011;48640;48.770;9.148;2022-07-30T03:03:21;7.35;;;3.50;;
62580;SDS011;48640;48.770;9.148;2022-07-30T03:05:53;5.00;;;3.40;;
62580;SDS011;48640;48.770;9.148;2022-07-30T03:08:21;7.63;;;2.83;;
62580;SDS011;48640;48.770;9.148;2022-07-30T03:10:48;4.47;;;2.50;;
62580;SDS011;48640;48.770;9.148;2022-07-30T03:13:16;4.13;;;2.85;;
62580;SDS011;48640;48.770;9.148;2022-07-30T03:15:46;8.33;;;2.57;;
62580;SDS011;48640;48.770;9.148;2022-07-30T03:18:16;4.03;;;2.50;;
62580;SDS011;48640;48.770;9.148;2022-07-30T03:20:48;4.70;;;2.83;;
62580;SDS011;48640;48.770;9.148;2022-07-30T03:23:16;4.40;;;2.53;;
62580;SDS011;48640;48.770;9.148;2022-07-30T03:25:46;4.35;;;2.35;;
62580;SDS011;48640;48.770;9.148;2022-07-30T03:28:16;5.65;;;2.50;;
62580;SDS011;48640;48.770;9.148;2022-07-30T03:30:44;4.00;;;2.80;;
62580;SDS011;48640;48.770;9.148;2022-07-30T03:33:11;6.78;;;2.97;;
62580;SDS011;48640;48.770;9.148;2022-07-30T03:35:40;5.57;;;2.53;;
62580;SDS011;48640;48.770;9.148;2022-07-30T03:38:10;5.47;;;2.95;;
62580;SDS011;48640;48.770;9.148;2022-07-30T03:43:05;7.28;;;2.63;;
62580;SDS011;48640;48.770;9.148;2022-07-30T03:45:33;6.13;;;2.60;;
62580;SDS011;48640;48.770;9.148;2022-07-30T03:48:01;7.40;;;3.38;;
62580;SDS011;48640;48.770;9.148;2022-07-30T03:50:30;4.75;;;2.90;;
62580;SDS011;48640;48.770;9.148;2022-07-30T03:52:57;6.97;;;3.60;;
62580;SDS011;48640;48.770;9.148;2022-07-30T03:55:25;5.55;;;3.17;;
62580;SDS011;48640;48.770;9.148;2022-07-30T03:57:52;6.15;;;3.00;;
62580;SDS011;48640;48.770;9.148;2022-07-30T04:00:19;4.05;;;2.88;;
62580;SDS011;48640;48.770;9.148;2022-07-30T04:02:46;5.55;;;2.92;;
62580;SDS011;48640;48.770;9.148;2022-07-30T04:05:13;5.07;;;2.95;;
62580;SDS011;48640;48.770;9.148;2022-07-30T04:07:41;6.88;;;2.92;;
62580;SDS011;48640;48.770;9.148;2022-07-30T04:10:08;5.95;;;2.92;;
62580;SDS011;48640;48.770;9.148;2022-07-30T04:12:36;3.58;;;2.70;;
62580;SDS011;48640;48.770;9.148;2022-07-30T04:15:03;5.03;;;3.05;;
62580;SDS011;48640;48.770;9.148;2022-07-30T04:17:32;4.53;;;2.85;;
62580;SDS011;48640;48.770;9.148;2022-07-30T04:20:04;4.10;;;2.83;;
62580;SDS011;48640;48.770;9.148;2022-07-30T04:22:35;4.75;;;2.90;;
62580;SDS011;48640;48.770;9.148;2022-07-30T04:25:03;8.32;;;3.22;;
62580;SDS011;48640;48.770;9.148;2022-07-30T04:27:31;4.55;;;3.13;;
62580;SDS011;48640;48.770;9.148;2022-07-30T04:30:01;6.18;;;3.42;;
62580;SDS011;48640;48.770;9.148;2022-07-30T04:32:29;4.13;;;2.50;;
62580;SDS011;48640;48.770;9.148;2022-07-30T04:34:55;6.60;;;3.70;;
62580;SDS011;48640;48.770;9.148;2022-07-30T04:37:24;7.47;;;4.45;;
62580;SDS011;48640;48.770;9.148;2022-07-30T04:39:52;6.40;;;3.58;;
62580;SDS011;48640;48.770;9.148;2022-07-30T04:42:21;4.03;;;2.83;;
62580;SDS011;48640;48.770;9.148;2022-07-30T04:44:49;5.18;;;2.58;;
62580;SDS011;48640;48.770;9.148;2022-07-30T04:47:17;6.20;;;3.17;;
62580;SDS011;48640;48.770;9.148;2022-07-30T04:49:44;3.75;;;2.67;;
62580;SDS011;48640;48.770;9.148;2022-07-30T04:52:12;5.32;;;3.42;;
62580;SDS011;48640;48.770;9.148;2022-07-30T04:54:43;5.38;;;2.95;;
62580;SDS011;48640;48.770;9.148;2022-07-30T04:57:14;4.82;;;2.80;;
62580;SDS011;48640;48.770;9.148;2022-07-30T04:59:42;4.47;;;3.35;;
62580;SDS011;48640;48.770;9.148;2022-07-30T05:02:08;5.07;;;2.92;;
62580;SDS011;48640;48.770;9.148;2022-07-30T05:04:38;5.10;;;2.70;;
62580;SDS011;48640;48.770;9.148;2022-07-30T05:09:34;7.78;;;3.63;;
62580;SDS011;48640;48.770;9.148;2022-07-30T05:12:01;5.05;;;2.75;;
62580;SDS011;48640;48.770;9.148;2022-07-30T05:14:28;6.35;;;3.35;;
62580;SDS011;48640;48.770;9.148;2022-07-30T05:16:54;7.20;;;3.63;;
62580;SDS011;48640;48.770;9.148;2022-07-30T05:19:22;6.38;;;3.13;;
62580;SDS011;48640;48.770;9.148;2022-07-30T05:21:50;5.55;;;2.35;;
62580;SDS011;48640;48.770;9.148;2022-07-30T05:24:17;4.18;;;3.00;;
62580;SDS011;48640;48.770;9.148;2022-07-30T05:26:44;6.95;;;3.05;;
62580;SDS011;48640;48.770;9.148;2022-07-30T05:29:11;5.70;;;2.70;;
62580;SDS011;48640;48.770;9.148;2022-07-30T05:31:38;5.82;;;3.15;;
62580;SDS011;48640;48.770;9.148;2022-07-30T05:34:04;5.82;;;3.13;;
62580;SDS011;48640;48.770;9.148;2022-07-30T05:36:31;5.32;;;3.22;;
62580;SDS011;48640;48.770;9.148;2022-07-30T05:39:00;5.25;;;3.13;;
62580;SDS011;48640;48.770;9.148;2022-07-30T05:41:27;4.53;;;3.00;;
62580;SDS011;48640;48.770;9.148;2022-07-30T05:43:54;5.65;;;3.05;;
62580;SDS011;48640;48.770;9.148;2022-07-30T05:46:21;4.15;;;2.53;;
62580;SDS011;48640;48.770;9.148;2022-07-30T05:48:48;4.75;;;2.45;;
62580;SDS011;48640;48.770;9.148;2022-07-30T05:51:15;5.95;;;2.45;;
62580;SDS011;48640;48.770;9.148;2022-07-30T05:53:43;4.80;;;2.53;;
62580;SDS011;48640;48.770;9.148;2022-07-30T05:56:11;6.63;;;2.20;;
62580;SDS011;48640;48.770;9.148;2022-07-30T05:58:38;4.90;;;2.47;;
62580;SDS011;48640;48.770;9.148;2022-07-30T06:01:05;3.67;;;2.17;;
62580;SDS011;48640;48.770;9.148;2022-07-30T06:03:31;4.80;;;2.65;;
62580;SDS011;48640;48.770;9.148;2022-07-30T06:05:59;4.40;;;2.83;;
62580;SDS011;48640;48.770;9.148;2022-07-30T06:08:27;5.47;;;3.47;;
62580;SDS011;48640;48.770;9.148;2022-07-30T06:10:54;4.78;;;2.70;;
62580;SDS011;48640;48.770;9.148;2022-07-30T06:13:22;4.13;;;2.70;;
62580;SDS011;48640;48.770;9.148;2022-07-30T06:15:49;4.47;;;2.45;;
62580;SDS011;48640;48.770;9.148;2022-07-30T06:18:15;5.82;;;2.60;;
62580;SDS011;48640;48.770;9.148;2022-07-30T06:20:42;5.80;;;2.70;;
62580;SDS011;48640;48.770;9.148;2022-07-30T06:23:09;4.22;;;2.60;;
62580;SDS011;48640;48.770;9.148;2022-07-30T06:25:36;4.40;;;2.60;;
62580;SDS011;48640;48.770;9.148;2022-07-30T06:28:03;5.97;;;2.65;;
62580;SDS011;48640;48.770;9.148;2022-07-30T06:30:31;4.63;;;2.63;;
62580;SDS011;48640;48.770;9.148;2022-07-30T06:32:58;4.53;;;2.60;;
62580;SDS011;48640;48.770;9.148;2022-07-30T06:35:25;7.35;;;2.90;;
62580;SDS011;48640;48.770;9.148;2022-07-30T06:37:52;4.60;;;2.67;;
62580;SDS011;48640;48.770;9.148;2022-07-30T06:40:18;5.10;;;2.83;;
62580;SDS011;48640;48.770;9.148;2022-07-30T06:42:45;6.35;;;2.90;;
62580;SDS011;48640;48.770;9.148;2022-07-30T06:45:12;5.82;;;2.78;;
62580;SDS011;48640;48.770;9.148;2022-07-30T06:47:40;6.63;;;3.05;;
62580;SDS011;48640;48.770;9.148;2022-07-30T06:50:07;5.47;;;2.90;;
62580;SDS011;48640;48.770;9.148;2022-07-30T06:52:34;9.00;;;3.90;;
62580;SDS011;48640;48.770;9.148;2022-07-30T06:55:02;7.35;;;3.35;;
62580;SDS011;48640;48.770;9.148;2022-07-30T06:57:29;6.75;;;3.05;;
62580;SDS011;48640;48.770;9.148;2022-07-30T06:59:56;7.63;;;3.65;;
62580;SDS011;48640;48.770;9.148;2022-07-30T07:02:22;7.55;;;3.47;;
62580;SDS011;48640;48.770;9.148;2022-07-30T07:04:51;6.70;;;3.33;;
62580;SDS011;48640;48.770;9.148;2022-07-30T07:07:17;5.93;;;2.95;;
62580;SDS011;48640;48.770;9.148;2022-07-30T07:09:44;4.25;;;3.33;;
62580;SDS011;48640;48.770;9.148;2022-07-30T07:12:11;4.55;;;2.83;;
62580;SDS011;48640;48.770;9.148;2022-07-30T07:14:38;4.82;;;3.35;;
62580;SDS011;48640;48.770;9.148;2022-07-30T07:17:04;6.25;;;3.55;;
62580;SDS011;48640;48.770;9.148;2022-07-30T07:19:31;9.00;;;3.60;;
62580;SDS011;48640;48.770;9.148;2022-07-30T07:21:59;4.70;;;2.88;;
62580;SDS011;48640;48.770;9.148;2022-07-30T07:24:26;4.80;;;2.60;;
62580;SDS011;48640;48.770;9.148;2022-07-30T07:26:53;6.43;;;3.42;;
62580;SDS011;48640;48.770;9.148;2022-07-30T07:29:20;4.97;;;3.05;;
62580;SDS011;48640;48.770;9.148;2022-07-30T07:31:47;6.05;;;3.45;;
62580;SDS011;48640;48.770;9.148;2022-07-30T07:34:14;6.72;;;3.05;;
62580;SDS011;48640;48.770;9.148;2022-07-30T07:36:40;4.07;;;2.90;;
62580;SDS011;48640;48.770;9.148;2022-07-30T07:39:09;6.95;;;2.95;;
62580;SDS011;48640;48.770;9.148;2022-07-30T07:41:35;5.25;;;2.67;;
62580;SDS011;48640;48.770;9.148;2022-07-30T07:44:03;4.13;;;2.88;;
62580;SDS011;48640;48.770;9.148;2022-07-30T07:46:31;5.32;;;2.55;;
62580;SDS011;48640;48.770;9.148;2022-07-30T07:48:58;8.43;;;3.38;;
62580;SDS011;48640;48.770;9.148;2022-07-30T07:51:25;7.38;;;2.63;;
62580;SDS011;48640;48.770;9.148;2022-07-30T07:53:52;5.40;;;2.30;;
62580;SDS011;48640;48.770;9.148;2022-07-30T07:56:20;4.47;;;2.70;;
62580;SDS011;48640;48.770;9.148;2022-07-30T07:58:47;3.33;;;2.47;;
62580;SDS011;48640;48.770;9.148;2022-07-30T08:01:13;3.70;;;2.42;;
62580;SDS011;48640;48.770;9.148;2022-07-30T08:03:40;5.55;;;2.95;;
62580;SDS011;48640;48.770;9.148;2022-07-30T08:06:07;8.15;;;2.83;;
62580;SDS011;48640;48.770;9.148;2022-07-30T08:08:34;3.45;;;2.15;;
62580;SDS011;48640;48.770;9.148;2022-07-30T08:11:01;3.95;;;2.35;;
62580;SDS011;48640;48.770;9.148;2022-07-30T08:13:30;5.90;;;2.17;;
62580;SDS011;48640;48.770;9.148;2022-07-30T08:15:58;4.53;;;2.25;;
62580;SDS011;48640;48.770;9.148;2022-07-30T08:18:24;6.68;;;2.20;;
62580;SDS011;48640;48.770;9.148;2022-07-30T08:20:52;7.97;;;2.22;;
62580;SDS011;48640;48.770;9.148;2022-07-30T08:23:19;5.78;;;1.92;;
62580;SDS011;48640;48.770;9.148;2022-07-30T08:25:47;4.73;;;2.03;;
62580;SDS011;48640;48.770;9.148;2022-07-30T08:28:14;6.07;;;2.28;;
62580;SDS011;48640;48.770;9.148;2022-07-30T08:30:42;3.75;;;1.95;;
62580;SDS011;48640;48.770;9.148;2022-07-30T08:33:09;8.05;;;2.00;;
62580;SDS011;48640;48.770;9.148;2022-07-30T08:35:35;5.13;;;2.53;;
62580;SDS011;48640;48.770;9.148;2022-07-30T08:38:02;2.80;;;2.05;;
62580;SDS011;48640;48.770;9.148;2022-07-30T08:40:29;3.72;;;2.30;;
62580;SDS011;48640;48.770;9.148;2022-07-30T08:42:59;3.72;;;1.98;;
62580;SDS011;48640;48.770;9.148;2022-07-30T08:45:29;8.55;;;1.73;;
62580;SDS011;48640;48.770;9.148;2022-07-30T08:47:57;4.53;;;2.00;;
62580;SDS011;48640;48.770;9.148;2022-07-30T08:50:25;3.78;;;1.75;;
62580;SDS011;48640;48.770;9.148;2022-07-30T08:52:52;4.07;;;1.80;;
62580;SDS011;48640;48.770;9.148;2022-07-30T08:55:20;5.15;;;1.92;;
62580;SDS011;48640;48.770;9.148;2022-07-30T08:57:47;5.15;;;1.90;;
62580;SDS011;48640;48.770;9.148;2022-07-30T09:00:15;5.05;;;2.50;;
62580;SDS011;48640;48.770;9.148;2022-07-30T09:02:42;3.08;;;2.00;;
62580;SDS011;48640;48.770;9.148;2022-07-30T09:05:11;8.93;;;2.63;;
62580;SDS011;48640;48.770;9.148;2022-07-30T09:07:38;3.00;;;1.73;;
62580;SDS011;48640;48.770;9.148;2022-07-30T09:10:07;4.50;;;2.10;;
62580;SDS011;48640;48.770;9.148;2022-07-30T09:12:36;3.60;;;1.90;;
62580;SDS011;48640;48.770;9.148;2022-07-30T09:15:06;3.83;;;1.60;;
62580;SDS011;48640;48.770;9.148;2022-07-30T09:17:51;4.82;;;1.77;;
62580;SDS011;48640;48.770;9.148;2022-07-30T09:20:22;5.40;;;1.77;;
62580;SDS011;48640;48.770;9.148;2022-07-30T09:22:50;4.35;;;1.65;;
62580;SDS011;48640;48.770;9.148;2022-07-30T09:25:35;5.03;;;1.90;;
62580;SDS011;48640;48.770;9.148;2022-07-30T09:28:03;4.18;;;1.90;;
62580;SDS011;48640;48.770;9.148;2022-07-30T09:30:41;4.28;;;1.63;;
62580;SDS011;48640;48.770;9.148;2022-07-30T09:33:12;5.40;;;1.67;;
62580;SDS011;48640;48.770;9.148;2022-07-30T09:35:41;5.65;;;1.60;;
62580;SDS011;48640;48.770;9.148;2022-07-30T09:38:08;6.25;;;1.83;;
62580;SDS011;48640;48.770;9.148;2022-07-30T09:40:35;5.72;;;2.45;;
62580;SDS011;48640;48.770;9.148;2022-07-30T09:43:05;4.07;;;1.73;;
62580;SDS011;48640;48.770;9.148;2022-07-30T09:45:33;2.75;;;1.38;;
62580;SDS011;48640;48.770;9.148;2022-07-30T09:48:00;4.22;;;1.60;;
62580;SDS011;48640;48.770;9.148;2022-07-30T09:50:28;3.58;;;1.77;;
62580;SDS011;48640;48.770;9.148;2022-07-30T09:53:04;5.38;;;2.03;;
62580;SDS011;48640;48.770;9.148;2022-07-30T09:55:33;3.92;;;1.55;;
62580;SDS011;48640;48.770;9.148;2022-07-30T09:58:02;3.13;;;1.65;;
62580;SDS011;48640;48.770;9.148;2022-07-30T10:00:31;5.03;;;1.52;;
62580;SDS011;48640;48.770;9.148;2022-07-30T10:03:01;5.57;;;1.60;;
62580;SDS011;48640;48.770;9.148;2022-07-30T10:05:47;5.22;;;1.60;;
62580;SDS011;48640;48.770;9.148;2022-07-30T10:08:17;4.53;;;1.95;;
62580;SDS011;48640;48.770;9.148;2022-07-30T10:10:44;3.63;;;1.80;;
62580;SDS011;48640;48.770;9.148;2022-07-30T10:13:12;3.10;;;1.40;;
62580;SDS011;48640;48.770;9.148;2022-07-30T10:15:39;4.07;;;1.90;;
62580;SDS011;48640;48.770;9.148;2022-07-30T10:18:07;4.93;;;1.70;;
62580;SDS011;48640;48.770;9.148;2022-07-30T10:20:34;4.75;;;1.63;;
62580;SDS011;48640;48.770;9.148;2022-07-30T10:23:01;3.05;;;1.70;;
62580;SDS011;48640;48.770;9.148;2022-07-30T10:25:34;3.55;;;1.67;;
62580;SDS011;48640;48.770;9.148;2022-07-30T10:28:02;2.08;;;1.33;;
62580;SDS011;48640;48.770;9.148;2022-07-30T10:30:29;4.03;;;1.90;;
62580;SDS011;48640;48.770;9.148;2022-07-30T10:32:57;5.30;;;1.92;;
62580;SDS011;48640;48.770;9.148;2022-07-30T10:35:25;2.30;;;1.13;;
62580;SDS011;48640;48.770;9.148;2022-07-30T10:37:52;1.60;;;1.13;;
62580;SDS011;48640;48.770;9.148;2022-07-30T10:40:24;5.55;;;1.77;;
62580;SDS011;48640;48.770;9.148;2022-07-30T10:45:54;3.92;;;1.85;;
62580;SDS011;48640;48.770;9.148;2022-07-30T10:48:27;4.30;;;1.80;;
62580;SDS011;48640;48.770;9.148;2022-07-30T10:50:58;3.00;;;1.27;;
62580;SDS011;48640;48.770;9.148;2022-07-30T10:53:32;6.35;;;1.48;;
62580;SDS011;48640;48.770;9.148;2022-07-30T10:56:11;3.45;;;1.25;;
62580;SDS011;48640;48.770;9.148;2022-07-30T10:58:56;2.65;;;1.27;;
62580;SDS011;48640;48.770;9.148;2022-07-30T11:04:28;4.95;;;1.52;;
62580;SDS011;48640;48.770;9.148;2022-07-30T11:07:25;2.13;;;1.30;;
62580;SDS011;48640;48.770;9.148;2022-07-30T11:09:54;2.00;;;1.10;;
62580;SDS011;48640;48.770;9.148;2022-07-30T11:15:19;3.53;;;1.73;;
62580;SDS011;48640;48.770;9.148;2022-07-30T11:20:23;4.13;;;1.50;;
62580;SDS011;48640;48.770;9.148;2022-07-30T11:22:49;3.58;;;1.60;;
62580;SDS011;48640;48.770;9.148;2022-07-30T11:28:08;3.20;;;1.50;;
62580;SDS011;48640;48.770;9.148;2022-07-30T11:31:23;2.58;;;1.30;;
62580;SDS011;48640;48.770;9.148;2022-07-30T11:37:07;2.78;;;1.48;;
62580;SDS011;48640;48.770;9.148;2022-07-30T11:42:33;4.82;;;1.88;;
62580;SDS011;48640;48.770;9.148;2022-07-30T11:47:57;2.72;;;1.80;;
62580;SDS011;48640;48.770;9.148;2022-07-30T11:50:28;3.53;;;1.40;;
62580;SDS011;48640;48.770;9.148;2022-07-30T11:52:57;2.78;;;1.50;;
62580;SDS011;48640;48.770;9.148;2022-07-30T11:55:26;2.75;;;1.80;;
62580;SDS011;48640;48.770;9.148;2022-07-30T11:57:55;2.22;;;1.45;;
62580;SDS011;48640;48.770;9.148;2022-07-30T12:00:24;3.92;;;1.83;;
62580;SDS011;48640;48.770;9.148;2022-07-30T12:02:59;2.70;;;1.20;;
62580;SDS011;48640;48.770;9.148;2022-07-30T12:05:31;4.32;;;1.75;;
62580;SDS011;48640;48.770;9.148;2022-07-30T12:07:58;3.67;;;1.42;;
62580;SDS011;48640;48.770;9.148;2022-07-30T12:10:25;2.13;;;1.10;;
62580;SDS011;48640;48.770;9.148;2022-07-30T12:12:52;5.38;;;1.58;;
62580;SDS011;48640;48.770;9.148;2022-07-30T12:15:31;4.70;;;1.85;;
62580;SDS011;48640;48.770;9.148;2022-07-30T12:18:01;5.32;;;1.50;;
62580;SDS011;48640;48.770;9.148;2022-07-30T12:20:28;3.88;;;1.42;;
62580;SDS011;48640;48.770;9.148;2022-07-30T12:22:55;3.00;;;1.58;;
62580;SDS011;48640;48.770;9.148;2022-07-30T12:25:22;3.15;;;1.15;;
62580;SDS011;48640;48.770;9.148;2022-07-30T12:27:50;2.95;;;1.13;;
62580;SDS011;48640;48.770;9.148;2022-07-30T12:30:17;4.20;;;1.25;;
62580;SDS011;48640;48.770;9.148;2022-07-30T12:32:44;2.13;;;1.25;;
62580;SDS011;48640;48.770;9.148;2022-07-30T12:35:13;2.00;;;1.17;;
62580;SDS011;48640;48.770;9.148;2022-07-30T12:37:39;2.17;;;1.20;;
62580;SDS011;48640;48.770;9.148;2022-07-30T12:40:26;10.10;;;1.33;;
62580;SDS011;48640;48.770;9.148;2022-07-30T12:42:53;3.38;;;1.10;;
62580;SDS011;48640;48.770;9.148;2022-07-30T12:45:27;1.55;;;1.00;;
62580;SDS011;48640;48.770;9.148;2022-07-30T12:47:55;2.88;;;1.40;;
62580;SDS011;48640;48.770;9.148;2022-07-30T12:50:23;4.97;;;1.60;;
62580;SDS011;48640;48.770;9.148;2022-07-30T12:52:52;3.70;;;1.42;;
62580;SDS011;48640;48.770;9.148;2022-07-30T12:55:27;1.90;;;0.90;;
62580;SDS011;48640;48.770;9.148;2022-07-30T12:57:55;2.03;;;1.17;;
62580;SDS011;48640;48.770;9.148;2022-07-30T13:00:24;1.90;;;1.05;;
62580;SDS011;48640;48.770;9.148;2022-07-30T13:02:52;3.53;;;1.48;;
62580;SDS011;48640;48.770;9.148;2022-07-30T13:05:19;2.42;;;1.20;;
62580;SDS011;48640;48.770;9.148;2022-07-30T13:08:08;2.33;;;1.40;;
62580;SDS011;48640;48.770;9.148;2022-07-30T13:10:34;2.50;;;1.60;;
62580;SDS011;48640;48.770;9.148;2022-07-30T13:13:02;1.95;;;1.25;;
62580;SDS011;48640;48.770;9.148;2022-07-30T13:15:28;3.75;;;1.50;;
62580;SDS011;48640;48.770;9.148;2022-07-30T13:17:55;3.65;;;1.20;;
62580;SDS011;48640;48.770;9.148;2022-07-30T13:20:22;2.92;;;1.65;;
62580;SDS011;48640;48.770;9.148;2022-07-30T13:22:49;3.25;;;1.35;;
62580;SDS011;48640;48.770;9.148;2022-07-30T13:25:17;2.40;;;1.25;;
62580;SDS011;48640;48.770;9.148;2022-07-30T13:27:44;2.60;;;1.70;;
62580;SDS011;48640;48.770;9.148;2022-07-30T13:30:11;3.33;;;1.40;;
62580;SDS011;48640;48.770;9.148;2022-07-30T13:32:38;2.28;;;1.58;;
62580;SDS011;48640;48.770;9.148;2022-07-30T13:35:06;4.18;;;1.83;;
62580;SDS011;48640;48.770;9.148;2022-07-30T13:37:33;3.38;;;1.58;;
62580;SDS011;48640;48.770;9.148;2022-07-30T13:40:00;2.88;;;1.35;;
62580;SDS011;48640;48.770;9.148;2022-07-30T13:42:28;8.48;;;1.52;;
62580;SDS011;48640;48.770;9.148;2022-07-30T13:44:55;7.65;;;1.48;;
62580;SDS011;48640;48.770;9.148;2022-07-30T13:47:22;2.50;;;1.42;;
62580;SDS011;48640;48.770;9.148;2022-07-30T13:49:48;3.03;;;1.40;;
62580;SDS011;48640;48.770;9.148;2022-07-30T13:52:15;3.03;;;1.45;;
62580;SDS011;48640;48.770;9.148;2022-07-30T13:54:42;2.85;;;1.50;;
62580;SDS011;48640;48.770;9.148;2022-07-30T13:57:09;3.75;;;1.70;;
62580;SDS011;48640;48.770;9.148;2022-07-30T13:59:37;2.70;;;1.45;;
62580;SDS011;48640;48.770;9.148;2022-07-30T14:02:04;2.35;;;1.52;;
62580;SDS011;48640;48.770;9.148;2022-07-30T14:04:31;2.10;;;1.13;;
62580;SDS011;48640;48.770;9.148;2022-07-30T14:06:58;4.60;;;1.60;;
62580;SDS011;48640;48.770;9.148;2022-07-30T14:09:25;3.88;;;1.67;;
62580;SDS011;48640;48.770;9.148;2022-07-30T14:11:51;2.90;;;1.52;;
62580;SDS011;48640;48.770;9.148;2022-07-30T14:14:18;2.28;;;1.30;;
62580;SDS011;48640;48.770;9.148;2022-07-30T14:16:48;2.47;;;1.50;;
62580;SDS011;48640;48.770;9.148;2022-07-30T14:19:16;2.20;;;1.58;;
62580;SDS011;48640;48.770;9.148;2022-07-30T14:21:43;2.88;;;1.40;;
62580;SDS011;48640;48.770;9.148;2022-07-30T14:24:10;1.95;;;1.27;;
62580;SDS011;48640;48.770;9.148;2022-07-30T14:26:38;3.75;;;1.40;;
62580;SDS011;48640;48.770;9.148;2022-07-30T14:29:04;3.30;;;1.58;;
62580;SDS011;48640;48.770;9.148;2022-07-30T14:31:32;2.95;;;1.40;;
62580;SDS011;48640;48.770;9.148;2022-07-30T14:34:00;9.13;;;1.75;;
62580;SDS011;48640;48.770;9.148;2022-07-30T14:36:28;3.63;;;1.35;;
62580;SDS011;48640;48.770;9.148;2022-07-30T14:38:55;3.33;;;1.40;;
62580;SDS011;48640;48.770;9.148;2022-07-30T14:41:22;2.17;;;1.30;;
62580;SDS011;48640;48.770;9.148;2022-07-30T14:43:49;2.22;;;1.50;;
62580;SDS011;48640;48.770;9.148;2022-07-30T14:46:16;3.35;;;1.48;;
62580;SDS011;48640;48.770;9.148;2022-07-30T14:48:43;3.03;;;1.42;;
62580;SDS011;48640;48.770;9.148;2022-07-30T14:51:11;4.82;;;1.42;;
62580;SDS011;48640;48.770;9.148;2022-07-30T14:53:39;1.83;;;1.15;;
62580;SDS011;48640;48.770;9.148;2022-07-30T14:56:05;4.40;;;1.30;;
62580;SDS011;48640;48.770;9.148;2022-07-30T14:58:32;2.20;;;1.63;;
62580;SDS011;48640;48.770;9.148;2022-07-30T15:00:59;3.45;;;1.27;;
62580;SDS011;48640;48.770;9.148;2022-07-30T15:03:28;2.35;;;1.23;;
62580;SDS011;48640;48.770;9.148;2022-07-30T15:05:55;3.22;;;1.30;;
62580;SDS011;48640;48.770;9.148;2022-07-30T15:08:23;2.78;;;1.55;;
62580;SDS011;48640;48.770;9.148;2022-07-30T15:10:50;3.30;;;1.20;;
62580;SDS011;48640;48.770;9.148;2022-07-30T15:13:16;3.65;;;1.40;;
62580;SDS011;48640;48.770;9.148;2022-07-30T15:15:43;1.48;;;1.05;;
62580;SDS011;48640;48.770;9.148;2022-07-30T15:18:10;2.75;;;1.10;;
62580;SDS011;48640;48.770;9.148;2022-07-30T15:20:37;2.83;;;1.60;;
62580;SDS011;48640;48.770;9.148;2022-07-30T15:23:04;3.47;;;1.38;;
62580;SDS011;48640;48.770;9.148;2022-07-30T15:25:32;3.03;;;1.30;;
62580;SDS011;48640;48.770;9.148;2022-07-30T15:27:59;5.72;;;2.40;;